Watkinsville, GA (30677)

2:14 AM EDT on August 28, 2016 (GMT -0400)
Colham Ferry Elementary School WeatherSTEM | | Change Station

Elev 0 ft 33.85 °N, 83.41 °W | Updated 4 minutes ago

Clear
Clear
76.2 °F
Feels Like 77 °F
N
1.0
Wind Variable Wind from NE

Today
High -- | Low -- °F
--% Chance of Precip.
Yesterday
High -- | Low -- °F
Precip. -- in
Pressure 30.11 in
Visibility 10.0 miles
Clouds Clear
Heat Index 77 °F
Dew Point 72 °F
Humidity 87%
Rainfall 0.00 in
Snow Depth Not available.
7:04 AM 8:03 PM
Waning Crescent, 18% visible
METAR KAHN 280551Z AUTO 07006KT 10SM CLR 24/22 A3013 RMK AO2 SLP195 T02440222 10294 20244 50004
Pressure 30.11 in
Visibility 10.0 miles
Clouds Clear
Heat Index 77 °F
Dew Point 72 °F
Humidity 87%
Rainfall 0.00 in
Snow Depth Not available.
7:04 AM 8:03 PM
Waning Crescent, 18% visible
METAR KAHN 280551Z AUTO 07006KT 10SM CLR 24/22 A3013 RMK AO2 SLP195 T02440222 10294 20244 50004

10-Day Weather Forecast

Almanac

Astronomy

Aug. 28, 2016 Rise Set
Actual Time
Civil Twilight
Nautical Twilight
Astronomical Twilight
Moon
Length of Visible Light
Length of Day
Tomorrow will be .
, % of the Moon is Illuminated

Today's Extremes

State Highs State Lows

Community

WunderPhotos

Upload Photos

1,935,533 photos uploaded!

WunderBlog® & News

Nearby

Air Quality

  Air Quality AQ Index Pollutant
Not available.

Snow Depth

Station Depth Elevation

Earthquake Activity

City Distance Mag. Time & Date
Minimum magnitude displayed is 2.5.

Coastal Water Temperatures

Place Temperature

Stations

Nearby Weather Stations

Station Location Temp. Windchill Dew Point Humidity Wind Precip. Elev Updated Type
                   

Watches & Warnings

There are currently no watches in effect.